PWSweather.com
Personal Weather Stations
Station Observations
KVAGLENALL
West Henrico, Glen Allen, VA 23060-6503

West HenricoGlen Allen, VA 23060-6503

Lat: 37.6554, Lon: -77.5693

Elevation: 273

Station Type: Davis Vantage Pro II

Latest ConditionsUpdated 3:15:14 PM EDT Thursday, Oct 18, 2018
Currently Today's Max Today's Min Today's Average
Temperature 60.3°F15.7°C 61.2°F16.2°C 42.9°F6.1°C 51.2°F10.7°C
Dew Point 42.1°F5.6°C 47.1°F8.4°C 39.8°F4.3°C 42.6°F5.9°C
Winds 3.0 mph NW4.8 kmh NW 12.0 mph -19.3 kmh - - 3.5 mph 5.6 kmh
Wind Gusts 5.1 mph8.2 kmh 13.1 mph21.1 kmh - -
Humidity 51% 94% 47% 74%
Pressure 30.39 in1029.1 mb 30.46 in1031.5 mb 30.22 in1023.4 mb -
Hour Temp Dew Point Humidity Winds Wind Gusts Pressure Precip Precip Rate Daily Precip Total
03:15 PM 60.3°F15.7°C 42.1°F5.6°C 51% 3.0 mph NW4.8 kmh NW 5.1 mph8.2 kmh 30.39 in1029.1 mb 0.00 in0.0 mm 0.00 in0.0 mm 0.00 in0.0 mm
03:00 PM 60.3°F15.7°C 41.6°F5.3°C 50% 2.0 mph NE3.2 kmh NE 3.0 mph4.8 kmh 30.39 in1029.1 mb 0.00 in0.0 mm 0.00 in0.0 mm 0.00 in0.0 mm
02:45 PM 60.8°F16.0°C 41.5°F5.3°C 49% 6.0 mph N9.7 kmh N 12.1 mph19.5 kmh 30.39 in1029.1 mb 0.00 in0.0 mm 0.00 in0.0 mm 0.00 in0.0 mm
02:30 PM 61.2°F16.2°C 40.8°F4.9°C 47% 11.0 mph NE17.7 kmh NE 11.1 mph17.9 kmh 30.39 in1029.1 mb 0.00 in0.0 mm 0.00 in0.0 mm 0.00 in0.0 mm
02:15 PM 60.8°F16.0°C 42.1°F5.6°C 50% 1.0 mph W1.6 kmh W 2.0 mph3.2 kmh 30.40 in1029.5 mb 0.00 in0.0 mm 0.00 in0.0 mm 0.00 in0.0 mm
02:00 PM 60.5°F15.8°C 41.8°F5.4°C 50% 5.0 mph N8.0 kmh N 10.1 mph16.3 kmh 30.41 in1029.8 mb 0.00 in0.0 mm 0.00 in0.0 mm 0.00 in0.0 mm
01:45 PM 60.4°F15.8°C 43.2°F6.2°C 53% 2.0 mph NNE3.2 kmh NNE 2.0 mph3.2 kmh 30.41 in1029.8 mb 0.00 in0.0 mm 0.00 in0.0 mm 0.00 in0.0 mm
01:30 PM 60.5°F15.8°C 43.3°F6.3°C 53% 1.0 mph ENE1.6 kmh ENE 2.0 mph3.2 kmh 30.42 in1030.1 mb 0.00 in0.0 mm 0.00 in0.0 mm 0.00 in0.0 mm
01:15 PM 60.3°F15.7°C 42.6°F5.9°C 52% 2.0 mph NNE3.2 kmh NNE 2.0 mph3.2 kmh 30.42 in1030.1 mb 0.00 in0.0 mm 0.00 in0.0 mm 0.00 in0.0 mm
01:00 PM 59.7°F15.4°C 43.5°F6.4°C 55% 2.0 mph NW3.2 kmh NW 5.1 mph8.2 kmh 30.43 in1030.5 mb 0.00 in0.0 mm 0.00 in0.0 mm 0.00 in0.0 mm
12:45 PM 60.1°F15.6°C 42.9°F6.1°C 53% 6.0 mph N9.7 kmh N 10.1 mph16.3 kmh 30.44 in1030.8 mb 0.00 in0.0 mm 0.00 in0.0 mm 0.00 in0.0 mm
12:30 PM 59.3°F15.2°C 41.7°F5.4°C 52% 3.0 mph NNE4.8 kmh NNE 7.1 mph11.4 kmh 30.44 in1030.8 mb 0.00 in0.0 mm 0.00 in0.0 mm 0.00 in0.0 mm
12:15 PM 58.6°F14.8°C 42.0°F5.6°C 54% 9.0 mph NNE14.5 kmh NNE 13.1 mph21.1 kmh 30.44 in1030.8 mb 0.00 in0.0 mm 0.00 in0.0 mm 0.00 in0.0 mm
12:00 PM 57.8°F14.3°C 42.2°F5.7°C 56% 6.0 mph ESE9.7 kmh ESE 8.1 mph13.0 kmh 30.44 in1030.8 mb 0.00 in0.0 mm 0.00 in0.0 mm 0.00 in0.0 mm
11:45 AM 56.6°F13.7°C 41.1°F5.1°C 56% 6.0 mph NE9.7 kmh NE 10.1 mph16.3 kmh 30.45 in1031.2 mb 0.00 in0.0 mm 0.00 in0.0 mm 0.00 in0.0 mm
11:30 AM 56.9°F13.8°C 41.8°F5.4°C 57% 12.0 mph NE19.3 kmh NE 12.1 mph19.5 kmh 30.45 in1031.2 mb 0.00 in0.0 mm 0.00 in0.0 mm 0.00 in0.0 mm
11:15 AM 56.1°F13.4°C 42.8°F6.0°C 61% 8.0 mph NE12.9 kmh NE 9.1 mph14.6 kmh 30.45 in1031.2 mb 0.00 in0.0 mm 0.00 in0.0 mm 0.00 in0.0 mm
11:00 AM 56.0°F13.3°C 41.9°F5.5°C 59% 9.0 mph NNE14.5 kmh NNE 12.1 mph19.5 kmh 30.46 in1031.5 mb 0.00 in0.0 mm 0.00 in0.0 mm 0.00 in0.0 mm
10:45 AM 54.8°F12.7°C 42.0°F5.6°C 62% 6.0 mph ENE9.7 kmh ENE 10.1 mph16.3 kmh 30.45 in1031.2 mb 0.00 in0.0 mm 0.00 in0.0 mm 0.00 in0.0 mm
10:30 AM 54.7°F12.6°C 42.3°F5.7°C 63% 8.0 mph N12.9 kmh N 12.1 mph19.5 kmh 30.45 in1031.2 mb 0.00 in0.0 mm 0.00 in0.0 mm 0.00 in0.0 mm
10:15 AM 54.7°F12.6°C 43.6°F6.4°C 66% 2.0 mph NE3.2 kmh NE 5.1 mph8.2 kmh 30.45 in1031.2 mb 0.00 in0.0 mm 0.00 in0.0 mm 0.00 in0.0 mm
10:00 AM 53.7°F12.1°C 42.6°F5.9°C 66% 9.0 mph NE14.5 kmh NE 11.1 mph17.9 kmh 30.44 in1030.8 mb 0.00 in0.0 mm 0.00 in0.0 mm 0.00 in0.0 mm
09:45 AM 52.7°F11.5°C 41.6°F5.3°C 66% 3.0 mph NE4.8 kmh NE 13.1 mph21.1 kmh 30.45 in1031.2 mb 0.00 in0.0 mm 0.00 in0.0 mm 0.00 in0.0 mm
09:30 AM 51.8°F11.0°C 41.2°F5.1°C 67% 6.0 mph NE9.7 kmh NE 9.1 mph14.6 kmh 30.44 in1030.8 mb 0.00 in0.0 mm 0.00 in0.0 mm 0.00 in0.0 mm
09:15 AM 51.0°F10.6°C 42.6°F5.9°C 73% 8.0 mph NE12.9 kmh NE 10.1 mph16.3 kmh 30.44 in1030.8 mb 0.00 in0.0 mm 0.00 in0.0 mm 0.00 in0.0 mm
09:00 AM 49.4°F9.7°C 41.1°F5.1°C 73% 3.0 mph NE4.8 kmh NE 9.1 mph14.6 kmh 30.43 in1030.5 mb 0.00 in0.0 mm 0.00 in0.0 mm 0.00 in0.0 mm
08:45 AM 48.0°F8.9°C 41.2°F5.1°C 77% 5.0 mph N8.0 kmh N 10.1 mph16.3 kmh 30.43 in1030.5 mb 0.00 in0.0 mm 0.00 in0.0 mm 0.00 in0.0 mm
08:30 AM 45.6°F7.6°C 40.1°F4.5°C 81% 6.0 mph NE9.7 kmh NE 8.1 mph13.0 kmh 30.42 in1030.1 mb 0.00 in0.0 mm 0.00 in0.0 mm 0.00 in0.0 mm
08:15 AM 44.7°F7.1°C 40.2°F4.6°C 84% 4.0 mph N6.4 kmh N 7.1 mph11.4 kmh 30.41 in1029.8 mb 0.00 in0.0 mm 0.00 in0.0 mm 0.00 in0.0 mm
08:00 AM 44.3°F6.8°C 39.8°F4.3°C 84% 1.0 mph NNE1.6 kmh NNE 5.1 mph8.2 kmh 30.40 in1029.5 mb 0.00 in0.0 mm 0.00 in0.0 mm 0.00 in0.0 mm
07:45 AM 43.7°F6.5°C 40.4°F4.7°C 88% 4.0 mph N6.4 kmh N 5.1 mph8.2 kmh 30.39 in1029.1 mb 0.00 in0.0 mm 0.00 in0.0 mm 0.00 in0.0 mm
07:30 AM 42.9°F6.1°C 40.5°F4.7°C 91% 2.0 mph NNW3.2 kmh NNW 3.0 mph4.8 kmh 30.39 in1029.1 mb 0.00 in0.0 mm 0.00 in0.0 mm 0.00 in0.0 mm
07:15 AM 43.6°F6.4°C 40.6°F4.8°C 89% 2.0 mph N3.2 kmh N 4.0 mph6.4 kmh 30.38 in1028.8 mb 0.00 in0.0 mm 0.00 in0.0 mm 0.00 in0.0 mm
07:00 AM 43.8°F6.6°C 40.8°F4.9°C 89% 1.0 mph N1.6 kmh N 2.0 mph3.2 kmh 30.37 in1028.4 mb 0.00 in0.0 mm 0.00 in0.0 mm 0.00 in0.0 mm
06:45 AM 43.9°F6.6°C 40.6°F4.8°C 88% 1.0 mph NNE1.6 kmh NNE 2.0 mph3.2 kmh 30.37 in1028.4 mb 0.00 in0.0 mm 0.00 in0.0 mm 0.00 in0.0 mm
06:30 AM 44.0°F6.7°C 41.0°F5.0°C 89% 1.0 mph NE1.6 kmh NE 2.0 mph3.2 kmh 30.36 in1028.1 mb 0.00 in0.0 mm 0.00 in0.0 mm 0.00 in0.0 mm
06:15 AM 44.7°F7.1°C 41.1°F5.1°C 87% Calm Calm 1.0 mph1.6 kmh 30.35 in1027.8 mb 0.00 in0.0 mm 0.00 in0.0 mm 0.00 in0.0 mm
06:00 AM 45.5°F7.5°C 41.0°F5.0°C 84% Calm Calm 2.0 mph3.2 kmh 30.35 in1027.8 mb 0.00 in0.0 mm 0.00 in0.0 mm 0.00 in0.0 mm
05:45 AM 46.4°F8.0°C 41.6°F5.3°C 83% 1.0 mph N1.6 kmh N 3.0 mph4.8 kmh 30.34 in1027.4 mb 0.00 in0.0 mm 0.00 in0.0 mm 0.00 in0.0 mm
05:30 AM 46.8°F8.2°C 41.3°F5.2°C 81% 4.0 mph N6.4 kmh N 6.1 mph9.8 kmh 30.34 in1027.4 mb 0.00 in0.0 mm 0.00 in0.0 mm 0.00 in0.0 mm
05:15 AM 47.2°F8.4°C 41.4°F5.2°C 80% 1.0 mph NNW1.6 kmh NNW 4.0 mph6.4 kmh 30.33 in1027.1 mb 0.00 in0.0 mm 0.00 in0.0 mm 0.00 in0.0 mm
05:00 AM 47.4°F8.6°C 41.6°F5.3°C 80% 2.0 mph NE3.2 kmh NE 5.1 mph8.2 kmh 30.33 in1027.1 mb 0.00 in0.0 mm 0.00 in0.0 mm 0.00 in0.0 mm
04:45 AM 47.9°F8.8°C 41.8°F5.4°C 79% 2.0 mph N3.2 kmh N 3.0 mph4.8 kmh 30.32 in1026.8 mb 0.00 in0.0 mm 0.00 in0.0 mm 0.00 in0.0 mm
04:30 AM 47.7°F8.7°C 41.6°F5.3°C 79% 5.0 mph N8.0 kmh N 7.1 mph11.4 kmh 30.32 in1026.8 mb 0.00 in0.0 mm 0.00 in0.0 mm 0.00 in0.0 mm
04:15 AM 48.3°F9.1°C 42.1°F5.6°C 79% 3.0 mph NNE4.8 kmh NNE 6.1 mph9.8 kmh 30.31 in1026.4 mb 0.00 in0.0 mm 0.00 in0.0 mm 0.00 in0.0 mm
04:00 AM 48.4°F9.1°C 42.2°F5.7°C 79% 3.0 mph N4.8 kmh N 5.1 mph8.2 kmh 30.31 in1026.4 mb 0.00 in0.0 mm 0.00 in0.0 mm 0.00 in0.0 mm
03:45 AM 48.7°F9.3°C 42.5°F5.8°C 79% 7.0 mph NNE11.3 kmh NNE 9.1 mph14.6 kmh 30.30 in1026.1 mb 0.00 in0.0 mm 0.00 in0.0 mm 0.00 in0.0 mm
03:30 AM 48.6°F9.2°C 42.8°F6.0°C 80% 4.0 mph N6.4 kmh N 5.1 mph8.2 kmh 30.30 in1026.1 mb 0.00 in0.0 mm 0.00 in0.0 mm 0.00 in0.0 mm
03:15 AM 47.9°F8.8°C 43.7°F6.5°C 85% 2.0 mph NE3.2 kmh NE 4.0 mph6.4 kmh 30.29 in1025.7 mb 0.00 in0.0 mm 0.00 in0.0 mm 0.00 in0.0 mm
03:00 AM 48.7°F9.3°C 44.1°F6.7°C 84% 1.0 mph NE1.6 kmh NE 3.0 mph4.8 kmh 30.28 in1025.4 mb 0.00 in0.0 mm 0.00 in0.0 mm 0.00 in0.0 mm
02:45 AM 48.7°F9.3°C 44.8°F7.1°C 86% 3.0 mph NNE4.8 kmh NNE 5.1 mph8.2 kmh 30.28 in1025.4 mb 0.00 in0.0 mm 0.00 in0.0 mm 0.00 in0.0 mm
02:30 AM 48.6°F9.2°C 45.0°F7.2°C 87% 3.0 mph N4.8 kmh N 4.0 mph6.4 kmh 30.27 in1025.1 mb 0.00 in0.0 mm 0.00 in0.0 mm 0.00 in0.0 mm
02:15 AM 47.3°F8.5°C 45.7°F7.6°C 94% 3.0 mph NNE4.8 kmh NNE 7.1 mph11.4 kmh 30.26 in1024.7 mb 0.00 in0.0 mm 0.00 in0.0 mm 0.00 in0.0 mm
02:00 AM 47.3°F8.5°C 45.4°F7.4°C 93% Calm Calm 1.0 mph1.6 kmh 30.25 in1024.4 mb 0.00 in0.0 mm 0.00 in0.0 mm 0.00 in0.0 mm
01:45 AM 47.4°F8.6°C 45.5°F7.5°C 93% 2.0 mph SSW3.2 kmh SSW 2.0 mph3.2 kmh 30.25 in1024.4 mb 0.00 in0.0 mm 0.00 in0.0 mm 0.00 in0.0 mm
01:30 AM 47.4°F8.6°C 45.2°F7.3°C 92% 1.0 mph SSW1.6 kmh SSW 2.0 mph3.2 kmh 30.24 in1024.0 mb 0.00 in0.0 mm 0.00 in0.0 mm 0.00 in0.0 mm
01:15 AM 47.7°F8.7°C 45.2°F7.3°C 91% 1.0 mph SSW1.6 kmh SSW 2.0 mph3.2 kmh 30.24 in1024.0 mb 0.00 in0.0 mm 0.00 in0.0 mm 0.00 in0.0 mm
01:00 AM 48.2°F9.0°C 45.5°F7.5°C 90% Calm Calm -- 30.23 in1023.7 mb 0.00 in0.0 mm 0.00 in0.0 mm 0.00 in0.0 mm
12:45 AM 48.0°F8.9°C 45.8°F7.7°C 92% 1.0 mph N1.6 kmh N 2.0 mph3.2 kmh 30.23 in1023.7 mb 0.00 in0.0 mm 0.00 in0.0 mm 0.00 in0.0 mm
12:30 AM 48.5°F9.2°C 46.6°F8.1°C 93% 1.0 mph N1.6 kmh N 2.0 mph3.2 kmh 30.22 in1023.4 mb 0.00 in0.0 mm 0.00 in0.0 mm 0.00 in0.0 mm
12:15 AM 48.5°F9.2°C 46.9°F8.3°C 94% 1.0 mph WNW1.6 kmh WNW 5.1 mph8.2 kmh 30.22 in1023.4 mb 0.00 in0.0 mm 0.00 in0.0 mm 0.00 in0.0 mm
12:00 AM 49.0°F9.4°C 47.1°F8.4°C 93% 3.0 mph NNW4.8 kmh NNW 3.0 mph4.8 kmh 30.22 in1023.4 mb 0.00 in0.0 mm 0.00 in0.0 mm 0.00 in0.0 mm